createdAt,value
2022-11-21T00:10:21.302Z,96960
2022-11-21T00:22:21.850Z,96960
2022-11-21T00:34:21.199Z,96960
2022-11-21T00:46:21.194Z,96950
2022-11-21T00:58:21.287Z,96950
2022-11-21T01:10:21.293Z,96950
2022-11-21T01:22:21.192Z,96930
2022-11-21T01:34:21.308Z,96940
2022-11-21T01:46:21.198Z,96940
2022-11-21T01:58:21.262Z,96940
2022-11-21T02:10:21.190Z,96940
2022-11-21T02:22:21.195Z,96940
2022-11-21T02:34:21.303Z,96930
2022-11-21T02:46:21.198Z,96940
2022-11-21T02:58:21.188Z,96940
2022-11-21T03:10:21.280Z,96950
2022-11-21T03:22:21.303Z,96950
2022-11-21T03:34:21.271Z,96950
2022-11-21T03:46:21.190Z,96960
2022-11-21T03:58:21.306Z,96960
2022-11-21T04:10:21.292Z,96970
2022-11-21T04:22:21.276Z,96980
2022-11-21T04:34:21.310Z,96980
2022-11-21T04:46:21.193Z,96980
2022-11-21T04:58:21.299Z,96970
2022-11-21T05:10:21.277Z,96980
2022-11-21T05:22:21.311Z,96980
2022-11-21T05:34:21.205Z,96980
2022-11-21T05:46:21.195Z,96970
2022-11-21T05:58:21.275Z,96970
2022-11-21T06:10:21.247Z,96980
2022-11-21T06:22:21.287Z,96970
2022-11-21T06:34:21.247Z,96970
2022-11-21T06:46:21.189Z,96960
2022-11-21T06:58:21.304Z,96970
2022-11-21T07:10:21.209Z,96970
2022-11-21T07:22:21.255Z,96990
2022-11-21T07:34:21.298Z,96980
2022-11-21T07:46:21.193Z,96980
2022-11-21T07:58:21.289Z,96980
2022-11-21T08:10:21.251Z,96980
2022-11-21T08:22:21.192Z,96970
2022-11-21T08:34:21.289Z,96970
2022-11-21T08:46:21.199Z,96980
2022-11-21T08:58:21.197Z,96980
2022-11-21T09:10:21.301Z,96980
2022-11-21T09:22:21.272Z,96960
2022-11-21T09:34:21.217Z,96960
2022-11-21T09:46:21.208Z,96960
2022-11-21T09:58:21.267Z,96950
2022-11-21T10:10:21.304Z,96930
2022-11-21T10:22:21.200Z,96910
2022-11-21T10:34:21.258Z,96910
2022-11-21T10:46:21.363Z,96880
2022-11-21T10:58:21.302Z,96880
2022-11-21T11:10:26.958Z,96870
2022-11-21T11:22:21.250Z,96850
2022-11-21T11:34:21.224Z,96830
2022-11-21T11:46:21.189Z,96820
2022-11-21T11:58:21.195Z,96800
2022-11-21T12:10:21.260Z,96790
2022-11-21T12:22:21.314Z,96760
2022-11-21T12:34:21.287Z,96710
2022-11-21T12:46:21.194Z,96720
2022-11-21T12:58:21.195Z,96670
2022-11-21T13:10:21.314Z,96680
2022-11-21T13:22:21.280Z,96690
2022-11-21T13:34:21.398Z,96680
2022-11-21T13:46:21.192Z,96640
2022-11-21T13:58:21.282Z,96620
2022-11-21T14:10:21.285Z,96610
2022-11-21T14:22:21.200Z,96570
2022-11-21T14:34:21.195Z,96550
2022-11-21T14:46:21.195Z,96550
2022-11-21T14:58:21.396Z,96520
2022-11-21T15:10:30.183Z,96480
2022-11-21T15:22:21.205Z,96430
2022-11-21T15:34:35.399Z,96400
2022-11-21T15:46:21.191Z,96380
2022-11-21T15:58:21.192Z,96370
2022-11-21T16:10:26.207Z,96330
2022-11-21T16:22:21.191Z,96300
2022-11-21T16:34:21.259Z,96280
2022-11-21T16:46:21.201Z,96270
2022-11-21T16:58:21.310Z,96260
2022-11-21T17:10:21.194Z,96250
2022-11-21T17:22:24.600Z,96160
2022-11-21T17:34:22.498Z,96150
2022-11-21T17:46:21.203Z,96170
2022-11-21T17:58:21.310Z,96180
2022-11-21T18:10:42.343Z,96190
2022-11-21T18:22:26.293Z,96200
2022-11-21T18:34:21.313Z,96220
2022-11-21T18:46:21.254Z,96200
2022-11-21T18:58:21.202Z,96180
2022-11-21T19:10:41.966Z,96160
2022-11-21T19:22:21.308Z,96120
2022-11-21T19:34:21.211Z,96120
2022-11-21T19:46:21.197Z,96100
2022-11-21T19:58:21.296Z,96090
2022-11-21T20:10:21.303Z,96070
2022-11-21T20:22:21.194Z,96040
2022-11-21T20:34:21.214Z,96030
2022-11-21T20:46:21.444Z,96010
2022-11-21T20:58:21.191Z,96020
2022-11-21T21:10:21.293Z,96000
2022-11-21T21:22:21.247Z,95990
2022-11-21T21:34:21.312Z,95980
2022-11-21T21:46:21.191Z,95980
2022-11-21T21:58:21.204Z,95970
2022-11-21T22:10:21.279Z,95950
2022-11-21T22:22:21.196Z,95950
2022-11-21T22:34:21.192Z,95950
2022-11-21T22:46:21.206Z,95930
2022-11-21T22:58:21.250Z,95910
2022-11-21T23:10:21.360Z,95920
2022-11-21T23:22:21.188Z,95920
2022-11-21T23:34:21.201Z,95900
2022-11-21T23:46:21.196Z,95890
2022-11-21T23:58:21.310Z,95920
